createdAt,value
2018-05-31T00:01:58.543Z,70.71
2018-05-31T00:04:26.959Z,71.01
2018-05-31T00:06:54.465Z,71.34
2018-05-31T00:09:21.950Z,71.63
2018-05-31T00:11:49.451Z,71.84
2018-05-31T00:14:16.922Z,72.19
2018-05-31T00:16:44.401Z,72.39
2018-05-31T00:19:11.900Z,72.67
2018-05-31T00:21:39.382Z,73.01
2018-05-31T00:24:06.859Z,73.21
2018-05-31T00:26:34.370Z,73.38
2018-05-31T00:29:01.851Z,73.55
2018-05-31T00:31:29.321Z,73.76
2018-05-31T00:33:57.685Z,73.86
2018-05-31T00:36:25.181Z,73.96
2018-05-31T00:38:52.675Z,74.02
2018-05-31T00:41:20.160Z,74.17
2018-05-31T00:43:47.621Z,74.17
2018-05-31T00:46:15.139Z,74.32
2018-05-31T00:48:42.680Z,74.69
2018-05-31T00:51:10.498Z,74.65
2018-05-31T00:53:37.961Z,74.84
2018-05-31T00:56:17.307Z,75.15
2018-05-31T00:58:44.791Z,75.32
2018-05-31T01:01:12.343Z,75.40
2018-05-31T01:03:39.835Z,75.51
2018-05-31T01:06:07.312Z,75.57
2018-05-31T01:08:34.794Z,75.69
2018-05-31T01:11:02.360Z,75.59
2018-05-31T01:13:29.831Z,75.63
2018-05-31T01:15:57.295Z,75.78
2018-05-31T01:18:24.782Z,76.03
2018-05-31T01:20:52.248Z,76.32
2018-05-31T01:23:19.734Z,76.45
2018-05-31T01:25:47.223Z,76.58
2018-05-31T01:28:14.702Z,76.60
2018-05-31T01:30:42.218Z,76.90
2018-05-31T01:33:09.759Z,76.95
2018-05-31T01:35:37.237Z,76.78
2018-05-31T01:38:16.422Z,76.69
2018-05-31T01:40:43.884Z,76.60
2018-05-31T01:43:11.359Z,76.91
2018-05-31T01:45:38.866Z,77.12
2018-05-31T01:48:06.369Z,77.10
2018-05-31T01:50:33.856Z,77.32
2018-05-31T01:53:01.347Z,77.29
2018-05-31T01:55:28.831Z,77.52
2018-05-31T01:57:56.309Z,77.56
2018-05-31T02:00:23.803Z,77.58
2018-05-31T02:02:51.280Z,77.79
2018-05-31T02:05:18.773Z,77.88
2018-05-31T02:07:46.283Z,77.90
2018-05-31T02:10:13.776Z,78.08
2018-05-31T02:12:41.311Z,78.18
2018-05-31T02:15:08.787Z,78.34
2018-05-31T02:17:36.272Z,78.40
2018-05-31T02:20:03.810Z,78.44
2018-05-31T02:22:31.287Z,78.39
2018-05-31T02:24:58.759Z,78.16
2018-05-31T02:27:26.259Z,77.97
2018-05-31T02:29:53.800Z,77.96
2018-05-31T02:32:21.291Z,77.70
2018-05-31T02:34:48.763Z,77.36
2018-05-31T02:37:16.240Z,76.95
2018-05-31T02:39:43.763Z,76.48
2018-05-31T02:42:11.313Z,76.10
2018-05-31T02:44:38.786Z,75.60
2018-05-31T02:47:12.111Z,75.30
2018-05-31T02:49:39.587Z,74.76
2018-05-31T02:52:07.063Z,74.25
2018-05-31T02:54:34.556Z,74.00
2018-05-31T02:57:02.421Z,73.92
2018-05-31T02:59:29.953Z,73.99
2018-05-31T03:01:57.491Z,74.01
2018-05-31T03:04:25.000Z,73.87
2018-05-31T03:06:52.480Z,74.03
2018-05-31T03:09:19.973Z,74.25
2018-05-31T03:11:47.468Z,74.47
2018-05-31T03:14:14.963Z,74.42
2018-05-31T03:16:42.446Z,74.67
2018-05-31T03:19:09.923Z,75.04
2018-05-31T03:21:37.404Z,75.25
2018-05-31T03:24:04.915Z,75.16
2018-05-31T03:26:32.427Z,75.12
2018-05-31T03:28:59.897Z,75.21
2018-05-31T03:31:27.412Z,75.17
2018-05-31T03:33:54.878Z,75.33
2018-05-31T03:36:22.349Z,75.37
2018-05-31T03:38:49.850Z,75.46
2018-05-31T03:41:17.377Z,75.34
2018-05-31T03:43:44.838Z,75.24
2018-05-31T03:46:12.352Z,75.13
2018-05-31T03:48:39.839Z,74.99
2018-05-31T03:51:07.343Z,74.68
2018-05-31T03:53:34.844Z,74.43
2018-05-31T03:56:03.488Z,74.18
2018-05-31T03:58:31.115Z,73.79
2018-05-31T04:00:58.593Z,73.16
2018-05-31T04:03:26.109Z,73.08
2018-05-31T04:05:53.627Z,72.85
2018-05-31T04:08:21.171Z,72.47
2018-05-31T04:10:48.631Z,71.97
2018-05-31T04:13:17.011Z,71.70
2018-05-31T04:15:44.512Z,71.53
2018-05-31T04:18:12.355Z,71.05
2018-05-31T04:20:39.836Z,70.70
2018-05-31T04:23:07.360Z,70.47
2018-05-31T04:25:34.831Z,69.81
2018-05-31T04:28:02.319Z,68.90
2018-05-31T04:30:29.804Z,69.21
2018-05-31T04:32:57.276Z,68.89
2018-05-31T04:35:24.753Z,68.78
2018-05-31T04:37:52.241Z,67.84
2018-05-31T04:40:19.767Z,67.28
2018-05-31T04:42:47.256Z,67.41
2018-05-31T04:45:15.665Z,67.11
2018-05-31T04:47:43.159Z,67.22
2018-05-31T04:50:10.635Z,67.19
2018-05-31T04:52:38.182Z,66.58
2018-05-31T04:55:05.692Z,66.73
2018-05-31T04:57:33.177Z,66.59
2018-05-31T05:00:00.670Z,66.52
2018-05-31T05:02:28.162Z,66.20
2018-05-31T05:04:55.655Z,65.60
2018-05-31T05:07:23.426Z,65.34
2018-05-31T05:09:51.540Z,64.99
2018-05-31T05:12:19.020Z,64.49
2018-05-31T05:14:46.544Z,64.60
2018-05-31T05:17:14.047Z,64.49
2018-05-31T05:19:42.170Z,64.12
2018-05-31T05:22:09.667Z,63.51
2018-05-31T05:24:37.160Z,63.20
2018-05-31T05:27:04.643Z,63.40
2018-05-31T05:29:32.150Z,63.18
2018-05-31T05:31:59.666Z,62.90
2018-05-31T05:34:27.913Z,62.60
2018-05-31T05:36:55.454Z,61.89
2018-05-31T05:39:22.931Z,61.82
2018-05-31T05:41:50.419Z,61.44
2018-05-31T05:44:17.916Z,61.16
2018-05-31T05:46:45.402Z,60.99
2018-05-31T05:49:12.871Z,60.58
2018-05-31T05:51:40.388Z,60.95
2018-05-31T05:54:07.880Z,60.76
2018-05-31T05:56:35.353Z,60.51
2018-05-31T05:59:02.857Z,60.46
2018-05-31T06:01:30.344Z,60.28
2018-05-31T06:03:57.860Z,60.14
2018-05-31T06:06:25.431Z,60.05
2018-05-31T06:08:52.911Z,59.67
2018-05-31T06:11:20.404Z,59.67
2018-05-31T06:13:47.942Z,58.97
2018-05-31T06:16:15.448Z,59.02
2018-05-31T06:18:42.916Z,58.18
2018-05-31T06:21:10.406Z,58.27
2018-05-31T06:23:37.911Z,57.91
2018-05-31T06:26:05.394Z,57.10
2018-05-31T06:28:32.930Z,57.30
2018-05-31T06:31:00.421Z,57.13
2018-05-31T06:33:27.993Z,56.81
2018-05-31T06:35:55.423Z,56.40
2018-05-31T06:38:22.915Z,56.63
2018-05-31T06:40:50.379Z,56.09
2018-05-31T06:43:17.861Z,55.88
2018-05-31T06:45:45.332Z,55.56
2018-05-31T06:48:12.782Z,55.17
2018-05-31T06:50:40.276Z,54.51
2018-05-31T06:53:07.736Z,54.72
2018-05-31T06:55:36.698Z,54.06
2018-05-31T06:58:04.185Z,53.37
2018-05-31T07:00:31.640Z,53.18
2018-05-31T07:02:59.123Z,52.82
2018-05-31T07:05:27.176Z,52.41
2018-05-31T07:07:54.639Z,51.73
2018-05-31T07:10:22.099Z,51.35
2018-05-31T07:12:49.591Z,51.18
2018-05-31T07:15:17.118Z,50.83
2018-05-31T07:17:44.582Z,50.38
2018-05-31T07:20:12.101Z,50.08
2018-05-31T07:22:39.553Z,49.51
2018-05-31T07:25:07.066Z,48.13
2018-05-31T07:27:34.571Z,47.96
2018-05-31T07:30:02.061Z,47.93
2018-05-31T07:32:29.519Z,48.19
2018-05-31T07:34:57.011Z,47.99
2018-05-31T07:37:24.475Z,47.85
2018-05-31T07:39:51.956Z,47.92
2018-05-31T07:42:19.442Z,47.77
2018-05-31T07:44:46.904Z,47.29
2018-05-31T07:47:14.392Z,45.73
2018-05-31T07:49:41.848Z,45.55
2018-05-31T07:52:09.331Z,46.00
2018-05-31T07:54:36.808Z,45.05
2018-05-31T07:57:04.304Z,44.38
2018-05-31T07:59:31.796Z,44.70
2018-05-31T08:02:01.294Z,44.23
2018-05-31T08:04:28.814Z,43.86
2018-05-31T08:06:56.296Z,43.55
2018-05-31T08:09:23.837Z,43.47
2018-05-31T08:11:51.396Z,42.97
2018-05-31T08:14:18.909Z,43.22
2018-05-31T08:19:19.535Z,42.10
2018-05-31T08:21:47.019Z,41.71
2018-05-31T08:24:14.540Z,41.81
2018-05-31T08:26:42.112Z,41.67
2018-05-31T08:29:09.588Z,42.57
2018-05-31T08:31:37.557Z,42.83
2018-05-31T08:34:05.051Z,41.65
2018-05-31T08:36:32.535Z,40.79
2018-05-31T08:39:00.573Z,40.96
2018-05-31T08:41:28.063Z,39.65
2018-05-31T08:43:55.560Z,39.28
2018-05-31T08:46:23.032Z,38.98
2018-05-31T08:48:50.526Z,38.85
2018-05-31T08:51:17.987Z,38.82
2018-05-31T08:53:45.479Z,38.93
2018-05-31T08:56:12.955Z,39.13
2018-05-31T08:58:40.427Z,39.54
2018-05-31T09:01:07.879Z,39.64
2018-05-31T09:03:36.144Z,38.13
2018-05-31T09:06:03.641Z,36.35
2018-05-31T09:08:31.125Z,36.05
2018-05-31T09:10:58.691Z,36.88
2018-05-31T09:13:26.154Z,36.67
2018-05-31T09:15:53.687Z,35.36
2018-05-31T09:18:21.180Z,34.97
2018-05-31T09:20:48.718Z,34.82
2018-05-31T09:23:16.204Z,34.24
2018-05-31T09:25:43.721Z,34.61
2018-05-31T09:28:11.227Z,34.52
2018-05-31T09:30:38.727Z,34.44
2018-05-31T09:33:06.224Z,33.58
2018-05-31T09:35:33.723Z,33.69
2018-05-31T09:38:01.246Z,33.65
2018-05-31T09:40:28.787Z,33.63
2018-05-31T09:42:56.240Z,33.49
2018-05-31T09:45:23.722Z,33.30
2018-05-31T09:47:51.274Z,32.98
2018-05-31T09:50:18.748Z,33.23
2018-05-31T09:52:46.300Z,33.12
2018-05-31T09:55:13.843Z,33.17
2018-05-31T09:57:41.351Z,33.11
2018-05-31T10:00:08.868Z,33.44
2018-05-31T10:02:36.388Z,33.13
2018-05-31T10:05:03.889Z,33.22
2018-05-31T10:07:31.399Z,33.01
2018-05-31T10:09:58.902Z,33.14
2018-05-31T10:12:26.455Z,32.83
2018-05-31T10:14:53.980Z,32.08
2018-05-31T10:17:21.464Z,31.68
2018-05-31T10:19:48.939Z,31.86
2018-05-31T10:22:16.499Z,32.28
2018-05-31T10:24:43.988Z,32.24
2018-05-31T10:27:12.131Z,32.08
2018-05-31T10:29:42.695Z,32.06
2018-05-31T10:32:10.357Z,32.05
2018-05-31T10:34:37.869Z,32.19
2018-05-31T10:37:05.360Z,32.20
2018-05-31T10:39:32.883Z,31.86
2018-05-31T10:42:00.408Z,31.65
2018-05-31T10:44:27.912Z,31.81
2018-05-31T10:46:55.395Z,31.84
2018-05-31T10:51:54.679Z,31.36
2018-05-31T10:54:22.211Z,31.91
2018-05-31T10:56:49.802Z,31.55
2018-05-31T10:59:17.410Z,31.55
2018-05-31T11:01:44.951Z,31.52
2018-05-31T11:04:12.455Z,31.49
2018-05-31T11:06:39.979Z,31.62
2018-05-31T11:09:07.513Z,31.45
2018-05-31T11:11:35.011Z,30.87
2018-05-31T11:14:02.520Z,30.61
2018-05-31T11:16:30.034Z,31.02
2018-05-31T11:18:57.545Z,30.82
2018-05-31T11:21:25.050Z,30.46
2018-05-31T11:23:52.543Z,30.37
2018-05-31T11:26:20.027Z,30.10
2018-05-31T11:28:47.522Z,30.12
2018-05-31T11:31:15.060Z,29.82
2018-05-31T11:33:42.578Z,29.23
2018-05-31T11:36:10.083Z,29.16
2018-05-31T11:38:37.621Z,29.09
2018-05-31T11:41:05.236Z,28.86
2018-05-31T11:43:33.333Z,28.50
2018-05-31T11:46:00.839Z,28.07
2018-05-31T11:48:28.407Z,28.49
2018-05-31T11:50:55.932Z,28.42
2018-05-31T11:53:23.456Z,28.50
2018-05-31T11:55:50.968Z,28.14
2018-05-31T11:58:18.456Z,27.90
2018-05-31T12:00:46.200Z,28.16
2018-05-31T12:03:13.746Z,27.56
2018-05-31T12:05:41.301Z,27.64
2018-05-31T12:08:08.859Z,27.48
2018-05-31T12:10:36.355Z,27.40
2018-05-31T12:13:05.851Z,27.56
2018-05-31T12:15:33.374Z,27.49
2018-05-31T12:18:00.921Z,27.76
2018-05-31T12:20:30.737Z,27.67
2018-05-31T12:22:58.311Z,27.19
2018-05-31T12:25:25.821Z,26.56
2018-05-31T12:27:53.328Z,26.62
2018-05-31T12:30:20.808Z,26.62
2018-05-31T12:32:48.312Z,26.60
2018-05-31T12:35:15.854Z,25.91
2018-05-31T12:37:43.453Z,25.57
2018-05-31T12:40:10.973Z,25.40
2018-05-31T12:42:38.468Z,25.51
2018-05-31T12:45:07.755Z,25.05
2018-05-31T12:47:35.342Z,24.69
2018-05-31T12:50:02.820Z,24.62
2018-05-31T12:52:30.302Z,24.63
2018-05-31T12:54:57.910Z,24.29
2018-05-31T12:57:25.456Z,24.27
2018-05-31T12:59:52.944Z,23.80
2018-05-31T13:02:20.451Z,23.05
2018-05-31T13:04:47.943Z,23.06
2018-05-31T13:07:15.446Z,23.24
2018-05-31T13:09:42.955Z,22.68
2018-05-31T13:12:10.448Z,23.00
2018-05-31T13:14:37.956Z,22.87
2018-05-31T13:17:05.471Z,22.37
2018-05-31T13:19:33.451Z,22.40
2018-05-31T13:22:00.935Z,23.13
2018-05-31T13:24:28.480Z,22.60
2018-05-31T13:26:56.012Z,22.13
2018-05-31T13:29:23.491Z,22.21
2018-05-31T13:31:51.004Z,22.76
2018-05-31T13:34:18.592Z,22.58
2018-05-31T13:36:46.107Z,22.32
2018-05-31T13:39:13.604Z,22.07
2018-05-31T13:41:41.170Z,21.81
2018-05-31T13:44:08.681Z,22.11
2018-05-31T13:46:36.180Z,22.20
2018-05-31T13:49:03.695Z,22.25
2018-05-31T13:51:31.185Z,22.14
2018-05-31T13:53:58.664Z,21.91
2018-05-31T13:56:26.872Z,22.55
2018-05-31T13:58:54.367Z,23.50
2018-05-31T14:01:21.969Z,23.47
2018-05-31T14:03:49.456Z,22.79
2018-05-31T14:06:17.112Z,22.19
2018-05-31T14:08:44.620Z,22.13
2018-05-31T14:11:12.132Z,21.51
2018-05-31T14:13:39.665Z,20.94
2018-05-31T14:16:07.214Z,19.55
2018-05-31T14:18:34.707Z,19.73
2018-05-31T14:21:02.234Z,20.74
2018-05-31T14:23:29.722Z,20.58
2018-05-31T14:25:57.258Z,19.64
2018-05-31T14:28:24.742Z,18.67
2018-05-31T14:30:52.231Z,18.69
2018-05-31T14:33:19.774Z,18.08
2018-05-31T14:35:47.294Z,17.86
2018-05-31T14:38:14.783Z,17.22
2018-05-31T14:40:42.316Z,16.54
2018-05-31T14:43:09.824Z,16.55
2018-05-31T14:45:37.357Z,16.82
2018-05-31T14:48:06.398Z,16.76
2018-05-31T14:50:33.886Z,15.90
2018-05-31T14:53:01.396Z,16.02
2018-05-31T14:55:28.900Z,16.26
2018-05-31T14:57:56.384Z,15.60
2018-05-31T15:00:23.903Z,15.27
2018-05-31T15:02:51.403Z,15.42
2018-05-31T15:05:19.010Z,15.17
2018-05-31T15:07:49.959Z,15.24
2018-05-31T15:10:17.447Z,15.37
2018-05-31T15:12:44.951Z,15.50
2018-05-31T15:15:12.455Z,16.16
2018-05-31T15:17:39.978Z,15.82
2018-05-31T15:20:07.471Z,16.44
2018-05-31T15:22:34.955Z,16.23
2018-05-31T15:25:02.472Z,16.87
2018-05-31T15:27:29.963Z,16.63
2018-05-31T15:29:57.456Z,16.64
2018-05-31T15:32:24.947Z,16.28
2018-05-31T15:34:52.546Z,16.31
2018-05-31T15:37:20.033Z,16.82
2018-05-31T15:39:47.561Z,17.08
2018-05-31T15:42:15.052Z,17.57
2018-05-31T15:44:42.537Z,18.13
2018-05-31T15:47:10.019Z,18.70
2018-05-31T15:49:37.612Z,19.82
2018-05-31T15:52:05.130Z,19.78
2018-05-31T15:54:32.634Z,20.22
2018-05-31T15:57:00.123Z,20.61
2018-05-31T15:59:27.632Z,20.09
2018-05-31T16:01:55.113Z,20.20
2018-05-31T16:04:22.612Z,19.86
2018-05-31T16:06:50.124Z,20.10
2018-05-31T16:09:17.712Z,20.39
2018-05-31T16:11:45.191Z,20.15
2018-05-31T16:14:12.692Z,19.21
2018-05-31T16:16:40.213Z,18.71
2018-05-31T16:19:07.708Z,18.12
2018-05-31T16:21:36.092Z,17.69
2018-05-31T16:24:03.595Z,17.39
2018-05-31T16:26:31.202Z,18.22
2018-05-31T16:28:58.707Z,19.64
2018-05-31T16:31:26.260Z,20.48
2018-05-31T16:33:53.915Z,21.41
2018-05-31T16:36:21.565Z,22.20
2018-05-31T16:38:49.120Z,23.04
2018-05-31T16:41:16.628Z,23.87
2018-05-31T16:43:44.163Z,23.73
2018-05-31T16:46:11.684Z,24.16
2018-05-31T16:48:39.177Z,24.28
2018-05-31T16:51:06.670Z,24.83
2018-05-31T16:53:34.166Z,25.48
2018-05-31T16:56:01.675Z,25.91
2018-05-31T16:58:29.242Z,26.02
2018-05-31T17:00:56.744Z,26.25
2018-05-31T17:03:24.271Z,26.16
2018-05-31T17:05:52.657Z,25.93
2018-05-31T17:08:20.150Z,26.07
2018-05-31T17:10:47.628Z,26.31
2018-05-31T17:13:15.163Z,26.40
2018-05-31T17:15:42.673Z,27.21
2018-05-31T17:18:10.167Z,28.38
2018-05-31T17:20:37.658Z,28.94
2018-05-31T17:23:06.167Z,29.82
2018-05-31T17:25:33.715Z,30.47
2018-05-31T17:28:01.231Z,31.16
2018-05-31T17:30:28.767Z,31.59
2018-05-31T17:32:56.620Z,32.43
2018-05-31T17:35:24.248Z,33.03
2018-05-31T17:37:51.724Z,33.81
2018-05-31T17:40:19.184Z,34.30
2018-05-31T17:42:46.686Z,34.98
2018-05-31T17:45:14.159Z,35.25
2018-05-31T17:47:41.732Z,35.87
2018-05-31T17:50:09.221Z,36.39
2018-05-31T17:52:36.748Z,36.97
2018-05-31T17:55:04.281Z,37.55
2018-05-31T17:57:32.057Z,37.85
2018-05-31T17:59:59.535Z,38.29
2018-05-31T18:02:27.001Z,38.70
2018-05-31T18:04:54.503Z,39.14
2018-05-31T18:07:21.947Z,39.37
2018-05-31T18:09:49.502Z,39.70
2018-05-31T18:12:17.007Z,40.17
2018-05-31T18:14:44.496Z,40.46
2018-05-31T18:17:11.996Z,40.77
2018-05-31T18:19:39.594Z,41.31
2018-05-31T18:22:07.060Z,41.49
2018-05-31T18:24:34.569Z,41.72
2018-05-31T18:27:02.073Z,42.21
2018-05-31T18:29:30.051Z,42.55
2018-05-31T18:31:57.547Z,42.87
2018-05-31T18:34:25.043Z,43.38
2018-05-31T18:36:52.542Z,43.66
2018-05-31T18:39:20.020Z,44.19
2018-05-31T18:41:47.516Z,44.49
2018-05-31T18:44:15.007Z,44.76
2018-05-31T18:46:42.634Z,45.04
2018-05-31T18:49:10.295Z,45.32
2018-05-31T18:51:37.864Z,45.41
2018-05-31T18:54:05.321Z,45.74
2018-05-31T18:56:32.801Z,46.08
2018-05-31T18:59:00.280Z,46.30
2018-05-31T19:01:27.748Z,46.51
2018-05-31T19:03:55.227Z,46.75
2018-05-31T19:06:22.702Z,46.90
2018-05-31T19:08:50.197Z,47.32
2018-05-31T19:11:17.726Z,47.78
2018-05-31T19:13:50.680Z,48.11
2018-05-31T19:16:18.164Z,48.36
2018-05-31T19:18:51.158Z,48.62
2018-05-31T19:21:18.636Z,48.96
2018-05-31T19:23:46.149Z,49.36
2018-05-31T19:26:13.611Z,49.55
2018-05-31T19:28:41.159Z,49.88
2018-05-31T19:31:10.452Z,50.27
2018-05-31T19:33:37.928Z,50.44
2018-05-31T19:36:11.102Z,50.87
2018-05-31T19:38:38.571Z,51.15
2018-05-31T19:41:06.058Z,51.25
2018-05-31T19:43:39.136Z,51.19
2018-05-31T19:46:06.667Z,51.51
2018-05-31T19:48:34.131Z,51.68
2018-05-31T19:51:01.634Z,51.97
2018-05-31T19:53:34.649Z,52.28
2018-05-31T19:56:02.154Z,52.50
2018-05-31T19:58:35.149Z,52.79
2018-05-31T20:01:08.602Z,53.14
2018-05-31T20:03:36.860Z,53.30
2018-05-31T20:06:04.338Z,53.41
2018-05-31T20:08:31.805Z,53.54
2018-05-31T20:11:04.578Z,53.31
2018-05-31T20:13:32.088Z,53.49
2018-05-31T20:15:59.570Z,53.53
2018-05-31T20:18:27.088Z,53.54
2018-05-31T20:20:55.698Z,53.60
2018-05-31T20:23:23.193Z,53.44
2018-05-31T20:25:50.693Z,53.48
2018-05-31T20:28:18.649Z,53.59
2018-05-31T20:30:46.198Z,53.86
2018-05-31T20:33:13.662Z,53.82
2018-05-31T20:35:41.200Z,53.70
2018-05-31T20:38:08.680Z,53.70
2018-05-31T20:40:36.153Z,53.71
2018-05-31T20:43:03.707Z,53.75
2018-05-31T20:45:31.195Z,53.79
2018-05-31T20:47:58.677Z,53.73
2018-05-31T20:50:26.160Z,53.57
2018-05-31T20:52:53.647Z,53.76
2018-05-31T20:55:21.186Z,53.81
2018-05-31T20:57:48.741Z,53.72
2018-05-31T21:00:16.266Z,53.83
2018-05-31T21:02:43.752Z,54.02
2018-05-31T21:05:11.284Z,54.26
2018-05-31T21:07:38.779Z,54.37
2018-05-31T21:10:06.319Z,54.46
2018-05-31T21:12:33.843Z,54.74
2018-05-31T21:15:01.368Z,54.98
2018-05-31T21:17:28.863Z,55.27
2018-05-31T21:19:56.431Z,55.49
2018-05-31T21:22:23.910Z,55.83
2018-05-31T21:24:51.386Z,56.12
2018-05-31T21:27:18.933Z,56.08
2018-05-31T21:29:46.416Z,56.55
2018-05-31T21:32:14.409Z,56.64
2018-05-31T21:34:41.937Z,56.85
2018-05-31T21:37:09.468Z,56.53
2018-05-31T21:39:37.018Z,57.04
2018-05-31T21:42:04.533Z,57.55
2018-05-31T21:44:32.040Z,57.66
2018-05-31T21:46:59.526Z,58.04
2018-05-31T21:49:27.025Z,58.53
2018-05-31T21:51:54.483Z,58.89
2018-05-31T21:54:21.962Z,59.25
2018-05-31T21:56:49.457Z,59.35
2018-05-31T21:59:16.940Z,59.62
2018-05-31T22:01:44.437Z,59.63
2018-05-31T22:04:12.401Z,59.83
2018-05-31T22:06:40.018Z,60.19
2018-05-31T22:09:07.498Z,60.33
2018-05-31T22:14:01.848Z,60.73
2018-05-31T22:16:29.346Z,60.87
2018-05-31T22:18:57.318Z,60.87
2018-05-31T22:21:24.822Z,60.52
2018-05-31T22:23:52.369Z,60.59
2018-05-31T22:26:19.871Z,60.56
2018-05-31T22:28:47.370Z,60.68
2018-05-31T22:31:14.901Z,60.79
2018-05-31T22:33:42.420Z,60.88
2018-05-31T22:36:09.892Z,60.95
2018-05-31T22:38:37.363Z,60.54
2018-05-31T22:41:04.872Z,60.82
2018-05-31T22:43:32.338Z,61.20
2018-05-31T22:45:59.878Z,61.56
2018-05-31T22:48:28.218Z,62.15
2018-05-31T22:50:58.817Z,62.58
2018-05-31T22:53:26.321Z,62.82
2018-05-31T22:55:53.830Z,63.09
2018-05-31T22:58:21.375Z,63.30
2018-05-31T23:00:48.869Z,63.49
2018-05-31T23:03:17.052Z,63.70
2018-05-31T23:05:44.544Z,63.77
2018-05-31T23:08:12.004Z,64.02
2018-05-31T23:10:39.491Z,64.24
2018-05-31T23:13:07.021Z,64.58
2018-05-31T23:15:34.623Z,64.86
2018-05-31T23:18:02.128Z,64.90
2018-05-31T23:20:29.656Z,65.23
2018-05-31T23:22:57.141Z,65.35
2018-05-31T23:25:24.663Z,65.42
2018-05-31T23:27:52.234Z,65.84
2018-05-31T23:30:19.838Z,65.88
2018-05-31T23:32:47.400Z,65.98
2018-05-31T23:35:14.957Z,65.98
2018-05-31T23:37:42.453Z,65.92
2018-05-31T23:40:10.377Z,66.12
2018-05-31T23:42:37.873Z,66.43
2018-05-31T23:45:05.340Z,66.78
2018-05-31T23:47:32.862Z,66.57
2018-05-31T23:50:00.319Z,66.71
2018-05-31T23:52:27.781Z,66.99
2018-05-31T23:54:55.275Z,67.06
2018-05-31T23:57:22.881Z,67.08
2018-05-31T23:59:50.388Z,67.27
